Time;durP1;ratioP1;P1;durP2;ratioP2;P2;SDS_P1;SDS_P2;PMS_P1;PMS_P2;Temp;Humidity;BMP_temperature;BMP_pressure;BME280_temperature;BME280_humidity;BME280_pressure;Samples;Min_cycle;Max_cycle;Signal;HPM_P1;HPM_P2
2023/08/26 00:01:56;;;;;;;3.40;0.90;;;14.90;99.90;;;;;;4899985;29;20141;-68
2023/08/26 00:04:22;;;;;;;2.35;0.90;;;14.90;99.90;;;;;;4899192;29;20407;-67
2023/08/26 00:06:48;;;;;;;1.90;0.80;;;14.90;99.90;;;;;;4899669;29;20036;-67
2023/08/26 00:09:14;;;;;;;3.50;0.73;;;14.80;99.90;;;;;;4897824;29;20024;-68
2023/08/26 00:11:41;;;;;;;1.45;0.73;;;14.80;99.90;;;;;;4901711;29;20481;-67
2023/08/26 00:14:07;;;;;;;2.85;0.70;;;14.70;99.90;;;;;;4901640;29;20539;-67
2023/08/26 00:16:33;;;;;;;1.88;0.90;;;14.60;99.90;;;;;;4900110;29;20207;-67
2023/08/26 00:19:02;;;;;;;4.20;1.00;;;14.60;99.90;;;;;;4901371;29;20400;-68
2023/08/26 00:21:28;;;;;;;5.47;1.10;;;14.40;99.90;;;;;;4904844;29;20036;-67
2023/08/26 00:23:54;;;;;;;2.20;0.82;;;14.30;99.90;;;;;;4916992;29;20063;-68
2023/08/26 00:26:21;;;;;;;3.30;0.80;;;14.20;99.90;;;;;;4901061;29;20992;-67
2023/08/26 00:28:46;;;;;;;4.10;0.90;;;14.20;99.90;;;;;;4900270;29;20028;-68
2023/08/26 00:31:12;;;;;;;2.13;0.93;;;14.10;99.90;;;;;;4904008;29;20095;-68
2023/08/26 00:33:38;;;;;;;1.98;0.93;;;14.00;99.90;;;;;;4899985;29;20028;-67
2023/08/26 00:36:03;;;;;;;4.68;0.90;;;13.90;99.90;;;;;;4904004;29;20036;-67
2023/08/26 00:38:29;;;;;;;2.95;0.85;;;13.90;99.90;;;;;;4902283;29;20084;-68
2023/08/26 00:40:55;;;;;;;3.78;0.90;;;13.80;99.90;;;;;;4902811;29;20061;-67
2023/08/26 00:43:20;;;;;;;3.10;0.88;;;13.80;99.90;;;;;;4904947;29;20087;-67
2023/08/26 00:45:50;;;;;;;2.42;0.70;;;13.70;99.90;;;;;;4903778;29;20028;-67
2023/08/26 00:48:18;;;;;;;4.85;0.80;;;13.70;99.90;;;;;;4902934;29;20110;-68
2023/08/26 00:50:45;;;;;;;5.85;0.85;;;13.70;99.90;;;;;;4901016;29;20032;-67
2023/08/26 00:53:12;;;;;;;3.08;0.90;;;13.60;99.90;;;;;;4902878;29;20425;-67
2023/08/26 00:55:40;;;;;;;4.28;0.85;;;13.60;99.90;;;;;;4903328;29;20056;-68
2023/08/26 00:58:06;;;;;;;2.97;1.10;;;13.50;99.90;;;;;;4903644;29;20043;-68
2023/08/26 01:00:36;;;;;;;2.83;0.85;;;13.50;99.90;;;;;;4901678;29;20028;-67
2023/08/26 01:03:03;;;;;;;2.00;0.75;;;13.50;99.90;;;;;;4899811;29;20048;-67
2023/08/26 01:05:29;;;;;;;3.45;0.70;;;13.50;99.90;;;;;;4899005;29;20034;-67
2023/08/26 01:07:56;;;;;;;2.63;0.68;;;13.40;99.90;;;;;;4894796;29;20036;-68
2023/08/26 01:10:29;;;;;;;4.22;1.10;;;13.50;99.90;;;;;;4901977;29;20024;-67
2023/08/26 01:13:04;;;;;;;2.97;1.15;;;13.40;99.90;;;;;;4901615;29;20043;-68
2023/08/26 01:15:31;;;;;;;1.95;1.10;;;13.50;99.90;;;;;;4902984;29;20593;-68
2023/08/26 01:18:00;;;;;;;5.28;1.00;;;13.50;99.90;;;;;;4894562;29;20035;-67
2023/08/26 01:20:27;;;;;;;2.72;0.98;;;13.50;99.90;;;;;;4903582;29;20046;-67
2023/08/26 01:22:55;;;;;;;2.70;1.20;;;13.50;99.90;;;;;;4903374;29;20040;-67
2023/08/26 01:25:21;;;;;;;3.60;1.02;;;13.50;99.90;;;;;;4912276;29;20551;-67
2023/08/26 01:27:47;;;;;;;4.05;1.15;;;13.40;99.90;;;;;;4895736;29;20362;-67
2023/08/26 01:30:13;;;;;;;4.03;0.85;;;13.40;99.90;;;;;;4902424;29;20024;-67
2023/08/26 01:32:54;;;;;;;4.70;1.20;;;13.30;99.90;;;;;;4902265;29;20307;-67
2023/08/26 01:35:26;;;;;;;3.85;0.90;;;13.30;99.90;;;;;;4899526;29;20035;-67
2023/08/26 01:37:54;;;;;;;3.92;1.15;;;13.20;99.90;;;;;;4898497;29;20036;-67
2023/08/26 01:40:21;;;;;;;1.48;0.98;;;13.20;99.90;;;;;;4901665;29;20040;-68
2023/08/26 01:42:49;;;;;;;2.33;0.80;;;13.10;99.90;;;;;;4902774;29;20144;-68
2023/08/26 01:45:15;;;;;;;4.95;0.75;;;13.10;99.90;;;;;;4900773;29;20024;-67
2023/08/26 01:47:40;;;;;;;3.35;1.15;;;13.10;99.90;;;;;;4904700;29;20059;-67
2023/08/26 01:50:06;;;;;;;3.63;1.00;;;13.00;99.90;;;;;;4891063;29;20431;-67
2023/08/26 01:52:32;;;;;;;4.20;1.05;;;13.00;99.90;;;;;;4900582;29;20162;-67
2023/08/26 01:54:57;;;;;;;2.72;0.90;;;12.90;99.90;;;;;;4898943;29;20032;-67
2023/08/26 01:57:23;;;;;;;2.78;0.85;;;12.90;99.90;;;;;;4900250;29;20076;-67
2023/08/26 01:59:48;;;;;;;3.88;1.00;;;12.90;99.90;;;;;;4896512;29;20153;-67
2023/08/26 02:02:14;;;;;;;8.52;1.58;;;12.90;99.90;;;;;;4903038;29;20036;-67
2023/08/26 02:04:40;;;;;;;3.85;1.30;;;12.80;99.90;;;;;;4898956;29;20039;-67
2023/08/26 02:07:05;;;;;;;4.82;1.65;;;12.80;99.90;;;;;;4902970;29;20048;-68
2023/08/26 02:09:31;;;;;;;5.32;1.30;;;12.80;99.90;;;;;;4900872;29;20335;-67
2023/08/26 02:11:57;;;;;;;5.53;1.30;;;12.90;99.90;;;;;;4892544;29;20072;-68
2023/08/26 02:14:22;;;;;;;3.83;1.42;;;12.90;99.90;;;;;;4901375;29;20035;-68
2023/08/26 02:16:48;;;;;;;5.05;1.60;;;12.90;99.90;;;;;;4902007;29;20043;-67
2023/08/26 02:19:13;;;;;;;3.03;1.02;;;12.90;99.90;;;;;;4898490;29;20396;-67
2023/08/26 02:21:39;;;;;;;2.92;1.10;;;12.90;99.90;;;;;;4904863;29;20472;-67
2023/08/26 02:24:05;;;;;;;4.97;1.08;;;12.80;99.90;;;;;;4901248;29;20035;-67
2023/08/26 02:26:31;;;;;;;2.67;1.42;;;12.80;99.90;;;;;;4896790;29;20043;-67
2023/08/26 02:28:57;;;;;;;2.22;1.00;;;12.80;99.90;;;;;;4901880;29;20084;-67
2023/08/26 02:31:22;;;;;;;3.15;1.27;;;12.70;99.90;;;;;;4901941;29;20070;-67
2023/08/26 02:33:48;;;;;;;2.97;1.20;;;12.70;99.90;;;;;;4915616;29;20480;-67
2023/08/26 02:36:14;;;;;;;3.70;1.50;;;12.60;99.90;;;;;;4900649;29;20084;-67
2023/08/26 02:38:40;;;;;;;3.25;1.80;;;12.50;99.90;;;;;;4883877;29;20045;-67
2023/08/26 02:41:07;;;;;;;2.72;1.27;;;12.50;99.90;;;;;;4890699;29;20083;-67
2023/08/26 02:43:33;;;;;;;4.40;1.60;;;12.40;99.90;;;;;;4922728;29;20453;-67
2023/08/26 02:45:58;;;;;;;2.85;1.42;;;12.40;99.90;;;;;;4912820;29;20032;-67
2023/08/26 02:48:25;;;;;;;5.07;1.90;;;12.40;99.90;;;;;;4899627;29;20361;-67
2023/08/26 02:51:01;;;;;;;5.35;1.70;;;12.40;99.90;;;;;;4888531;29;20225;-68
2023/08/26 02:53:28;;;;;;;5.60;1.63;;;12.40;99.90;;;;;;4899002;29;20509;-67
2023/08/26 02:55:55;;;;;;;3.28;1.83;;;12.40;99.90;;;;;;4898517;29;20520;-68
2023/08/26 02:58:21;;;;;;;3.40;1.38;;;12.50;99.90;;;;;;4900052;29;20032;-68
2023/08/26 03:00:47;;;;;;;2.97;1.23;;;12.50;99.90;;;;;;4897996;29;20032;-67
2023/08/26 03:03:16;;;;;;;2.40;1.42;;;12.40;99.90;;;;;;4895579;29;20274;-67
2023/08/26 03:05:42;;;;;;;4.82;1.48;;;12.40;99.90;;;;;;4902922;29;20047;-67
2023/08/26 03:08:08;;;;;;;2.65;1.40;;;12.40;99.90;;;;;;4902268;29;20032;-67
2023/08/26 03:10:34;;;;;;;3.55;1.95;;;12.30;99.90;;;;;;4900722;29;20028;-67
2023/08/26 03:13:00;;;;;;;5.22;1.90;;;12.20;99.90;;;;;;4900548;29;20502;-67
2023/08/26 03:15:29;;;;;;;4.60;2.08;;;12.30;99.90;;;;;;4901248;29;20031;-67
2023/08/26 03:17:56;;;;;;;2.88;1.40;;;12.30;99.90;;;;;;4902807;29;20571;-68
2023/08/26 03:20:22;;;;;;;2.85;1.50;;;12.30;99.90;;;;;;4900922;29;20472;-67
2023/08/26 03:22:47;;;;;;;2.50;1.05;;;12.30;99.90;;;;;;4901173;29;20510;-68
2023/08/26 03:25:13;;;;;;;2.38;1.48;;;12.30;99.90;;;;;;4908156;29;20024;-67
2023/08/26 03:27:39;;;;;;;1.55;1.20;;;12.20;99.90;;;;;;4888594;29;20064;-68
2023/08/26 03:30:05;;;;;;;2.75;1.23;;;12.20;99.90;;;;;;4901096;29;20039;-68
2023/08/26 03:32:31;;;;;;;2.78;1.40;;;12.20;99.90;;;;;;4902860;29;20039;-67
2023/08/26 03:34:56;;;;;;;3.42;1.48;;;12.20;99.90;;;;;;4901655;29;20036;-67
2023/08/26 03:37:22;;;;;;;2.35;1.48;;;12.10;99.90;;;;;;4899812;29;20039;-67
2023/08/26 03:39:48;;;;;;;2.13;1.30;;;12.20;99.90;;;;;;4896580;29;20036;-67
2023/08/26 03:42:13;;;;;;;3.60;1.40;;;12.10;99.90;;;;;;4902101;29;20066;-68
2023/08/26 03:44:39;;;;;;;2.35;1.40;;;12.00;99.90;;;;;;4900847;29;20032;-67
2023/08/26 03:47:04;;;;;;;4.07;1.30;;;12.00;99.90;;;;;;4902704;29;20127;-67
2023/08/26 03:49:30;;;;;;;2.80;1.50;;;12.00;99.90;;;;;;4898572;29;20420;-67
2023/08/26 03:51:56;;;;;;;2.67;1.35;;;12.00;99.90;;;;;;4900489;29;20036;-67
2023/08/26 03:54:21;;;;;;;3.00;1.45;;;11.90;99.90;;;;;;4908641;29;20023;-68
2023/08/26 03:56:47;;;;;;;3.58;1.17;;;11.90;99.90;;;;;;4906961;29;20036;-67
2023/08/26 03:59:13;;;;;;;3.85;1.30;;;11.80;99.90;;;;;;4905905;29;20412;-67
2023/08/26 04:01:38;;;;;;;3.13;1.30;;;11.80;99.90;;;;;;4902592;29;20047;-67
2023/08/26 04:04:04;;;;;;;2.25;1.40;;;11.80;99.90;;;;;;4895236;29;20082;-68
2023/08/26 04:06:31;;;;;;;4.45;1.60;;;11.80;99.90;;;;;;4916399;29;20191;-67
2023/08/26 04:08:57;;;;;;;3.92;1.42;;;11.80;99.90;;;;;;4904574;29;20039;-67
2023/08/26 04:11:22;;;;;;;2.10;1.58;;;11.80;99.90;;;;;;4903360;29;20036;-67
2023/08/26 04:13:48;;;;;;;3.85;1.17;;;11.80;99.90;;;;;;4905791;29;20036;-67
2023/08/26 04:16:15;;;;;;;1.17;1.00;;;11.80;99.90;;;;;;4923159;29;20039;-67
2023/08/26 04:18:42;;;;;;;1.30;1.00;;;11.80;99.90;;;;;;4908402;29;20244;-67
2023/08/26 04:21:09;;;;;;;3.17;1.42;;;11.80;99.90;;;;;;4916376;29;20539;-68
2023/08/26 04:23:35;;;;;;;1.95;1.23;;;11.80;99.90;;;;;;4904337;29;20478;-67
2023/08/26 04:26:00;;;;;;;2.70;1.00;;;11.90;99.90;;;;;;4908274;29;20167;-67
2023/08/26 04:28:26;;;;;;;2.28;1.23;;;11.80;99.90;;;;;;4889191;29;20392;-67
2023/08/26 04:30:52;;;;;;;4.20;1.25;;;11.80;99.90;;;;;;4900968;29;20032;-67
2023/08/26 04:33:20;;;;;;;1.35;1.10;;;11.70;99.90;;;;;;4900158;29;20032;-67
2023/08/26 04:35:45;;;;;;;2.83;0.98;;;11.70;99.90;;;;;;4905413;29;20480;-68
2023/08/26 04:38:11;;;;;;;3.45;1.30;;;11.70;99.90;;;;;;4903569;29;20043;-67
2023/08/26 04:40:37;;;;;;;3.85;1.33;;;11.70;99.90;;;;;;4901777;29;20032;-68
2023/08/26 04:43:03;;;;;;;2.78;1.65;;;11.60;99.90;;;;;;4897685;29;20044;-67
2023/08/26 04:45:29;;;;;;;3.28;1.08;;;11.60;99.90;;;;;;4904005;29;20116;-67
2023/08/26 04:47:55;;;;;;;2.47;0.90;;;11.50;99.90;;;;;;4904229;29;20566;-67
2023/08/26 04:50:20;;;;;;;2.05;1.08;;;11.40;99.90;;;;;;4897883;29;20028;-67
2023/08/26 04:52:46;;;;;;;4.63;1.15;;;11.40;99.90;;;;;;4897411;29;20035;-68
2023/08/26 04:55:12;;;;;;;2.30;1.20;;;11.40;99.90;;;;;;4913775;29;20032;-67
2023/08/26 04:57:37;;;;;;;2.20;1.10;;;11.40;99.90;;;;;;4904531;29;20120;-68
2023/08/26 05:00:08;;;;;;;1.92;1.10;;;11.40;99.90;;;;;;4905020;29;20025;-68
2023/08/26 05:02:34;;;;;;;1.65;0.90;;;11.30;99.90;;;;;;4900067;29;20036;-67
2023/08/26 05:04:59;;;;;;;3.22;1.17;;;11.40;99.90;;;;;;4903068;29;20540;-67
2023/08/26 05:07:25;;;;;;;3.60;1.00;;;11.40;99.90;;;;;;4900150;29;20501;-67
2023/08/26 05:09:51;;;;;;;1.40;1.30;;;11.40;99.90;;;;;;4898563;29;20391;-68
2023/08/26 05:12:16;;;;;;;1.83;1.10;;;11.40;99.90;;;;;;4898297;29;20330;-68
2023/08/26 05:14:42;;;;;;;1.75;1.10;;;11.30;99.90;;;;;;4898515;29;20055;-68
2023/08/26 05:17:07;;;;;;;2.08;1.00;;;11.40;99.90;;;;;;4900184;29;20028;-68
2023/08/26 05:19:33;;;;;;;1.85;1.05;;;11.40;99.90;;;;;;4911317;29;20032;-68
2023/08/26 05:21:58;;;;;;;1.83;0.82;;;11.40;99.90;;;;;;4902469;29;20104;-67
2023/08/26 05:24:24;;;;;;;2.20;1.00;;;11.40;99.90;;;;;;4897693;29;20033;-68
2023/08/26 05:26:50;;;;;;;2.85;1.00;;;11.30;99.90;;;;;;4899082;29;20032;-68
2023/08/26 05:29:15;;;;;;;1.42;1.00;;;11.30;99.90;;;;;;4906541;29;20032;-68
2023/08/26 05:31:41;;;;;;;3.75;1.00;;;11.30;99.90;;;;;;4900687;29;20028;-67
2023/08/26 05:34:06;;;;;;;1.85;1.08;;;11.30;99.90;;;;;;4914937;29;20032;-67
2023/08/26 05:36:32;;;;;;;2.00;1.23;;;11.30;99.90;;;;;;4901258;29;20039;-68
2023/08/26 05:38:57;;;;;;;2.65;1.30;;;11.20;99.90;;;;;;4898386;29;20167;-68
2023/08/26 05:41:23;;;;;;;4.68;1.00;;;11.30;99.90;;;;;;4899116;29;20083;-67
2023/08/26 05:43:49;;;;;;;2.25;1.10;;;11.30;99.90;;;;;;4899383;29;20180;-67
2023/08/26 05:46:15;;;;;;;1.60;0.90;;;11.20;99.90;;;;;;4901457;29;20467;-68
2023/08/26 05:48:41;;;;;;;1.40;0.95;;;11.30;99.90;;;;;;4906551;29;20032;-68
2023/08/26 05:51:07;;;;;;;1.83;0.90;;;11.30;99.90;;;;;;4898680;29;20060;-67
2023/08/26 05:53:32;;;;;;;0.80;0.70;;;11.30;99.90;;;;;;4900974;29;20048;-68
2023/08/26 05:55:58;;;;;;;3.30;1.00;;;11.40;99.90;;;;;;4902123;29;20103;-68
2023/08/26 05:58:24;;;;;;;1.60;0.93;;;11.40;99.90;;;;;;4903346;29;20639;-68
2023/08/26 06:00:50;;;;;;;1.30;1.10;;;11.50;99.90;;;;;;4902203;29;20032;-67
2023/08/26 06:03:16;;;;;;;3.35;1.27;;;11.60;99.90;;;;;;4901796;29;20550;-68
2023/08/26 06:05:42;;;;;;;3.92;1.20;;;11.70;99.90;;;;;;4902540;29;20062;-67
2023/08/26 06:08:07;;;;;;;1.13;0.95;;;11.80;99.90;;;;;;4906896;29;20036;-68
2023/08/26 06:10:33;;;;;;;1.38;0.93;;;11.90;99.90;;;;;;4900001;29;20119;-68
2023/08/26 06:12:59;;;;;;;1.83;1.00;;;11.90;99.90;;;;;;4897350;29;20122;-67
2023/08/26 06:15:24;;;;;;;2.45;1.02;;;12.00;99.90;;;;;;4894776;29;20055;-68
2023/08/26 06:17:50;;;;;;;10.05;5.80;;;12.00;99.90;;;;;;4896545;29;20551;-68
2023/08/26 06:20:16;;;;;;;4.70;3.10;;;12.10;99.90;;;;;;4893774;29;20039;-67
2023/08/26 06:22:42;;;;;;;5.00;3.13;;;12.30;99.90;;;;;;4896932;29;20071;-70
2023/08/26 06:25:08;;;;;;;4.53;3.05;;;12.40;99.90;;;;;;4896192;29;20438;-70
2023/08/26 06:27:34;;;;;;;11.90;6.90;;;12.50;99.90;;;;;;4894200;29;20095;-67
2023/08/26 06:30:03;;;;;;;9.70;4.63;;;12.60;99.90;;;;;;4893994;29;20544;-67
2023/08/26 06:32:29;;;;;;;7.60;4.32;;;12.70;99.90;;;;;;4896246;29;20040;-67
2023/08/26 06:34:54;;;;;;;5.20;2.88;;;12.80;99.90;;;;;;4896064;29;20058;-67
2023/08/26 06:37:20;;;;;;;2.70;2.20;;;12.90;99.90;;;;;;4899624;29;20120;-67
2023/08/26 06:39:46;;;;;;;3.70;1.92;;;13.00;99.90;;;;;;4885280;29;20143;-69
2023/08/26 06:42:11;;;;;;;2.45;1.70;;;13.10;99.90;;;;;;4893654;29;20455;-69
2023/08/26 06:44:37;;;;;;;3.30;1.73;;;13.20;99.90;;;;;;4902087;29;20420;-69
2023/08/26 06:47:03;;;;;;;2.05;1.30;;;13.40;99.90;;;;;;4893508;29;20800;-69
2023/08/26 06:49:28;;;;;;;2.30;1.20;;;13.40;99.90;;;;;;4899108;29;20437;-69
2023/08/26 06:51:54;;;;;;;2.33;1.40;;;13.60;99.90;;;;;;4890939;29;20032;-69
2023/08/26 06:54:19;;;;;;;3.20;2.28;;;13.70;99.90;;;;;;4896283;29;20032;-69
2023/08/26 06:56:45;;;;;;;3.50;1.70;;;13.80;99.90;;;;;;4901259;29;20292;-69
2023/08/26 06:59:11;;;;;;;2.50;1.60;;;14.00;99.90;;;;;;4901182;29;20055;-69
2023/08/26 07:01:37;;;;;;;2.95;1.38;;;14.50;99.90;;;;;;4897027;29;20080;-69
2023/08/26 07:04:07;;;;;;;2.85;1.30;;;14.50;99.90;;;;;;4896591;29;20088;-69
2023/08/26 07:06:33;;;;;;;3.92;0.90;;;14.60;99.90;;;;;;4892256;29;21699;-71
2023/08/26 07:08:59;;;;;;;3.17;1.00;;;14.70;99.90;;;;;;4893955;29;20068;-71
2023/08/26 07:11:25;;;;;;;2.50;1.00;;;14.70;99.90;;;;;;4892384;29;20036;-70
2023/08/26 07:13:51;;;;;;;1.85;1.10;;;14.80;99.90;;;;;;4886249;29;20032;-71
2023/08/26 07:16:16;;;;;;;2.05;1.10;;;14.90;99.90;;;;;;4888835;29;20048;-71
2023/08/26 07:18:42;;;;;;;1.35;0.90;;;15.00;99.90;;;;;;4898457;29;20032;-70
2023/08/26 07:21:08;;;;;;;2.25;0.98;;;15.10;99.90;;;;;;4901699;29;20095;-71
2023/08/26 07:23:34;;;;;;;4.45;0.90;;;15.10;99.90;;;;;;4896057;29;20032;-71
2023/08/26 07:25:59;;;;;;;1.67;0.90;;;15.30;99.90;;;;;;4894364;29;20031;-71
2023/08/26 07:28:25;;;;;;;2.45;0.90;;;15.50;99.90;;;;;;4894577;29;20054;-71
2023/08/26 07:30:51;;;;;;;1.77;0.70;;;15.60;99.90;;;;;;4901822;29;20110;-71
2023/08/26 07:33:17;;;;;;;2.10;0.80;;;15.70;99.90;;;;;;4934618;29;20133;-71
2023/08/26 07:35:43;;;;;;;5.90;1.17;;;15.90;99.90;;;;;;4900163;29;20091;-71
2023/08/26 07:38:08;;;;;;;3.60;0.80;;;16.10;99.90;;;;;;4898643;29;20027;-71
2023/08/26 07:40:34;;;;;;;1.05;0.57;;;16.10;99.90;;;;;;4899573;29;20543;-71
2023/08/26 07:43:00;;;;;;;2.25;0.60;;;16.10;99.90;;;;;;4898181;29;20062;-72
2023/08/26 07:45:26;;;;;;;1.83;0.50;;;16.10;99.90;;;;;;4896765;29;20496;-71
2023/08/26 07:47:52;;;;;;;0.80;0.45;;;16.40;99.90;;;;;;4901888;29;20059;-71
2023/08/26 07:50:18;;;;;;;2.40;0.57;;;17.80;99.90;;;;;;4914383;29;20144;-71
2023/08/26 07:52:44;;;;;;;0.93;0.30;;;20.80;99.90;;;;;;4903598;29;20063;-71
2023/08/26 07:55:09;;;;;;;1.85;0.43;;;23.60;99.90;;;;;;4897868;29;20111;-71
2023/08/26 07:57:35;;;;;;;2.65;0.50;;;26.50;99.90;;;;;;4903462;29;20187;-71
2023/08/26 08:00:02;;;;;;;1.25;0.30;;;28.90;93.00;;;;;;4899570;29;20036;-71
2023/08/26 08:02:29;;;;;;;0.85;0.30;;;30.90;77.70;;;;;;4909117;29;20040;-68
2023/08/26 08:04:55;;;;;;;1.35;0.30;;;32.70;67.90;;;;;;4898187;29;20087;-72
2023/08/26 08:07:20;;;;;;;2.17;0.30;;;33.90;62.00;;;;;;4898964;29;20024;-72
2023/08/26 08:09:46;;;;;;;1.88;0.30;;;35.00;55.90;;;;;;4895125;29;20036;-71
2023/08/26 08:12:14;;;;;;;3.38;0.60;;;35.70;55.00;;;;;;4895317;29;20095;-72
2023/08/26 08:14:40;;;;;;;1.35;0.40;;;36.20;51.50;;;;;;4909214;29;20032;-72
2023/08/26 08:17:06;;;;;;;0.77;0.20;;;36.40;51.30;;;;;;4898123;29;20137;-71
2023/08/26 08:19:38;;;;;;;3.42;0.30;;;36.00;48.70;;;;;;4898053;29;20044;-70
2023/08/26 08:22:03;;;;;;;0.75;0.20;;;36.30;46.80;;;;;;4898509;29;20107;-70
2023/08/26 08:24:29;;;;;;;2.30;0.32;;;36.70;48.80;;;;;;4907948;29;20035;-70
2023/08/26 08:26:54;;;;;;;1.13;0.40;;;37.50;45.20;;;;;;4899290;29;20072;-71
2023/08/26 08:29:20;;;;;;;2.25;0.40;;;38.30;44.30;;;;;;4892295;29;20056;-72
2023/08/26 08:31:46;;;;;;;2.35;0.40;;;39.10;44.30;;;;;;4902229;29;20047;-72
2023/08/26 08:34:11;;;;;;;1.85;0.20;;;39.40;42.30;;;;;;4913546;29;20465;-69
2023/08/26 08:36:37;;;;;;;0.80;0.20;;;39.40;42.90;;;;;;4905081;29;20111;-71
2023/08/26 08:39:03;;;;;;;2.22;0.20;;;40.20;41.60;;;;;;4901837;29;20032;-71
2023/08/26 08:41:33;;;;;;;1.00;0.20;;;40.50;41.40;;;;;;4903441;29;20072;-70
2023/08/26 08:44:00;;;;;;;;;;;41.30;40.20;;;;;;4904621;29;20032;-72
2023/08/26 08:46:27;;;;;;;1.33;0.28;;;41.70;38.80;;;;;;4904565;29;19927;-71
2023/08/26 08:48:52;;;;;;;1.50;0.30;;;40.80;37.10;;;;;;4905647;29;20068;-71
2023/08/26 08:51:20;;;;;;;1.02;0.30;;;40.10;39.40;;;;;;4905335;29;20067;-71
2023/08/26 08:53:47;;;;;;;2.33;0.30;;;40.70;41.30;;;;;;4896268;29;20172;-71
2023/08/26 08:56:17;;;;;;;1.65;0.30;;;41.10;37.70;;;;;;4884322;29;20504;-71
2023/08/26 08:58:47;;;;;;;0.85;0.28;;;41.40;36.80;;;;;;4902187;29;20522;-71
2023/08/26 09:01:17;;;;;;;1.30;0.35;;;41.40;34.70;;;;;;4903802;29;20055;-71
2023/08/26 09:03:43;;;;;;;;;;;42.00;35.70;;;;;;4907706;29;20044;-71
2023/08/26 09:06:09;;;;;;;0.45;0.20;;;42.20;37.20;;;;;;4900069;29;20041;-72
2023/08/26 09:08:35;;;;;;;1.80;0.30;;;42.80;36.40;;;;;;4902405;29;20032;-71
2023/08/26 09:11:00;;;;;;;1.88;0.20;;;42.40;33.90;;;;;;4897875;29;20138;-68
2023/08/26 09:13:26;;;;;;;1.25;0.30;;;39.70;34.60;;;;;;4897931;29;20051;-70
2023/08/26 09:15:52;;;;;;;1.27;0.30;;;36.20;38.20;;;;;;4902705;29;20033;-69
2023/08/26 09:18:19;;;;;;;1.67;0.40;;;32.90;44.70;;;;;;4892874;29;20487;-70
2023/08/26 09:20:46;;;;;;;2.03;0.22;;;30.10;49.60;;;;;;4898375;29;20032;-70
2023/08/26 09:23:12;;;;;;;1.02;0.30;;;27.70;58.30;;;;;;4894808;29;20209;-69
2023/08/26 09:25:38;;;;;;;2.15;0.43;;;26.00;77.60;;;;;;4895325;29;20031;-69
2023/08/26 09:28:04;;;;;;;2.63;0.40;;;23.70;95.90;;;;;;4898068;29;20417;-69
2023/08/26 09:30:30;;;;;;;1.75;0.43;;;22.70;99.90;;;;;;4898274;29;21668;-69
2023/08/26 09:32:56;;;;;;;1.40;0.63;;;22.00;99.90;;;;;;4912499;29;20092;-69
2023/08/26 09:35:22;;;;;;;2.08;0.35;;;21.80;99.90;;;;;;4899255;29;20535;-69
2023/08/26 09:37:55;;;;;;;2.17;0.47;;;22.30;99.90;;;;;;4905669;29;20043;-69
2023/08/26 09:40:21;;;;;;;0.45;0.30;;;22.80;99.90;;;;;;4892804;29;20188;-70
2023/08/26 09:42:47;;;;;;;1.38;0.40;;;23.30;99.90;;;;;;4894379;29;20629;-68
2023/08/26 09:45:17;;;;;;;1.92;0.20;;;23.60;99.90;;;;;;4894031;29;20127;-68
2023/08/26 09:47:46;;;;;;;1.07;0.20;;;23.60;99.90;;;;;;4895333;29;20048;-68
2023/08/26 09:50:12;;;;;;;1.90;0.30;;;23.50;99.90;;;;;;4909417;29;20279;-69
2023/08/26 09:52:43;;;;;;;2.20;0.40;;;23.40;99.90;;;;;;4896815;29;20451;-69
2023/08/26 09:55:09;;;;;;;2.05;0.30;;;23.30;99.90;;;;;;4897343;29;20023;-68
2023/08/26 09:57:35;;;;;;;1.20;0.47;;;23.30;99.90;;;;;;4895016;29;20047;-69
2023/08/26 10:00:01;;;;;;;1.08;0.30;;;23.10;99.90;;;;;;4904919;29;20036;-69
2023/08/26 10:02:30;;;;;;;1.98;0.40;;;23.00;99.90;;;;;;4894236;29;20050;-69
2023/08/26 10:05:00;;;;;;;0.63;0.35;;;23.00;99.90;;;;;;4887417;29;20107;-69
2023/08/26 10:07:28;;;;;;;0.40;0.25;;;23.40;99.90;;;;;;4891085;29;20051;-69
2023/08/26 10:10:13;;;;;;;1.80;0.20;;;25.20;99.90;;;;;;4905691;29;20045;-69
2023/08/26 10:12:46;;;;;;;0.93;0.20;;;28.80;88.30;;;;;;4899454;29;20060;-69
2023/08/26 10:15:14;;;;;;;0.93;0.30;;;30.70;74.40;;;;;;4897221;29;20043;-68
2023/08/26 10:17:48;;;;;;;2.33;0.40;;;31.00;69.50;;;;;;4898038;29;20068;-68
2023/08/26 10:20:14;;;;;;;2.58;0.50;;;29.80;73.80;;;;;;4884550;29;20035;-69
2023/08/26 10:22:40;;;;;;;4.60;0.70;;;28.60;78.20;;;;;;4905196;29;20476;-68
2023/08/26 10:25:08;;;;;;;4.82;2.00;;;27.70;78.00;;;;;;4897719;29;20634;-68
2023/08/26 10:27:35;;;;;;;4.93;0.73;;;27.10;84.00;;;;;;4897394;29;20080;-69
2023/08/26 10:30:02;;;;;;;2.75;0.60;;;28.00;86.40;;;;;;4894619;29;20104;-69
2023/08/26 10:32:28;;;;;;;3.15;0.50;;;30.70;80.30;;;;;;4897221;29;20466;-69
2023/08/26 10:34:56;;;;;;;4.43;0.60;;;33.60;64.20;;;;;;4896447;29;20043;-69
2023/08/26 10:37:33;;;;;;;2.58;0.40;;;35.60;54.00;;;;;;4898255;29;20040;-69
2023/08/26 10:40:09;;;;;;;1.98;0.43;;;35.80;51.70;;;;;;4898617;29;20043;-71
2023/08/26 10:42:36;;;;;;;1.27;0.30;;;36.60;48.50;;;;;;4894856;29;20519;-70
2023/08/26 10:45:02;;;;;;;0.95;0.30;;;38.20;47.90;;;;;;4894245;29;20035;-70
2023/08/26 10:47:44;;;;;;;2.28;0.32;;;39.50;41.70;;;;;;4896666;29;20273;-70
2023/08/26 10:50:25;;;;;;;2.13;0.30;;;39.70;41.70;;;;;;4896225;29;20580;-70
2023/08/26 10:53:19;;;;;;;1.50;0.30;;;40.20;42.20;;;;;;4901552;29;20559;-70
2023/08/26 10:55:47;;;;;;;0.93;0.20;;;41.10;39.40;;;;;;4903977;29;20055;-70
2023/08/26 10:58:18;;;;;;;2.50;0.40;;;41.50;40.40;;;;;;4901323;29;20032;-67
2023/08/26 11:00:52;;;;;;;2.70;0.35;;;40.90;38.60;;;;;;4898997;29;20129;-70
2023/08/26 11:03:25;;;;;;;1.77;0.20;;;40.70;37.00;;;;;;4897257;29;20399;-70
2023/08/26 11:06:01;;;;;;;0.82;0.30;;;40.60;39.00;;;;;;4899163;29;20137;-67
2023/08/26 11:08:27;;;;;;;4.75;0.45;;;40.30;41.20;;;;;;4891623;29;21172;-67
2023/08/26 11:10:53;;;;;;;1.90;0.30;;;39.40;38.00;;;;;;4888483;29;20036;-70
2023/08/26 11:13:21;;;;;;;2.10;0.40;;;37.10;39.70;;;;;;4893867;29;20068;-70
2023/08/26 11:15:49;;;;;;;1.63;0.45;;;34.30;42.10;;;;;;4892211;29;20107;-69
2023/08/26 11:18:16;;;;;;;3.72;0.70;;;31.70;47.80;;;;;;4896647;29;20039;-70
2023/08/26 11:20:43;;;;;;;4.57;0.65;;;29.40;52.80;;;;;;4886892;29;20127;-70
2023/08/26 11:23:09;;;;;;;2.75;0.80;;;27.50;60.50;;;;;;4890327;29;20050;-70
2023/08/26 11:25:36;;;;;;;2.83;0.60;;;26.00;78.00;;;;;;4891067;29;20063;-69
2023/08/26 11:28:12;;;;;;;4.80;0.60;;;25.00;96.60;;;;;;4890957;29;20035;-71
2023/08/26 11:30:51;;;;;;;3.72;0.88;;;24.00;99.80;;;;;;4893934;29;20130;-71
2023/08/26 11:33:17;;;;;;;5.03;0.75;;;23.60;99.90;;;;;;4894332;29;20351;-71
2023/08/26 11:35:47;;;;;;;5.07;0.90;;;23.30;99.90;;;;;;4892047;29;20024;-72
2023/08/26 11:38:13;;;;;;;2.70;0.38;;;22.80;99.90;;;;;;4897463;29;20020;-72
2023/08/26 11:40:40;;;;;;;3.75;0.55;;;22.30;99.90;;;;;;4892115;29;20036;-71
2023/08/26 11:43:10;;;;;;;2.72;0.63;;;21.90;99.90;;;;;;4892243;29;20096;-71
2023/08/26 11:45:40;;;;;;;1.17;0.35;;;21.40;99.90;;;;;;4892396;29;20044;-71
2023/08/26 11:48:10;;;;;;;1.80;0.35;;;20.90;99.90;;;;;;4893247;29;20165;-72
2023/08/26 11:50:36;;;;;;;1.63;0.40;;;20.30;99.90;;;;;;4894455;29;20125;-72
2023/08/26 11:53:03;;;;;;;2.67;0.60;;;19.30;99.90;;;;;;4893886;29;20036;-71
2023/08/26 11:55:30;;;;;;;4.60;0.50;;;18.70;99.90;;;;;;4890110;29;20039;-71
2023/08/26 11:57:57;;;;;;;0.90;0.40;;;18.20;99.90;;;;;;4891460;29;20509;-71
2023/08/26 12:00:23;;;;;;;1.15;0.40;;;17.80;99.90;;;;;;4895342;29;20028;-72
2023/08/26 12:02:51;;;;;;;1.33;0.40;;;17.40;99.90;;;;;;4912318;29;20063;-71
2023/08/26 12:05:18;;;;;;;2.47;0.43;;;17.10;99.90;;;;;;4892400;29;20476;-71
2023/08/26 12:07:51;;;;;;;2.17;0.40;;;17.00;99.90;;;;;;4890024;29;20052;-71
2023/08/26 12:10:17;;;;;;;1.02;0.40;;;17.00;99.90;;;;;;4894719;29;20035;-71
2023/08/26 12:12:47;;;;;;;3.00;0.60;;;17.40;99.90;;;;;;4893444;29;20404;-71
2023/08/26 12:15:15;;;;;;;0.95;0.30;;;18.70;99.90;;;;;;4891427;29;20024;-71
2023/08/26 12:17:43;;;;;;;3.55;0.30;;;20.20;99.90;;;;;;4897925;29;20091;-71
2023/08/26 12:20:26;;;;;;;1.85;0.50;;;21.30;99.90;;;;;;4892542;29;20298;-72
2023/08/26 12:22:53;;;;;;;1.35;0.30;;;22.10;99.90;;;;;;4891720;29;20111;-71
2023/08/26 12:25:23;;;;;;;1.83;0.40;;;23.00;99.90;;;;;;4890319;29;20656;-70
2023/08/26 12:27:49;;;;;;;0.75;0.20;;;23.40;99.90;;;;;;4894607;29;20036;-70
2023/08/26 12:30:14;;;;;;;2.10;0.30;;;23.70;99.90;;;;;;4906930;29;20043;-70
2023/08/26 12:32:40;;;;;;;1.00;0.20;;;23.40;99.90;;;;;;4894363;29;20083;-70
2023/08/26 12:35:07;;;;;;;1.50;0.30;;;23.50;99.90;;;;;;4907907;29;20478;-70
2023/08/26 12:37:34;;;;;;;2.30;0.52;;;23.40;99.90;;;;;;4890142;29;20035;-70
2023/08/26 12:40:03;;;;;;;4.65;0.70;;;23.80;99.90;;;;;;4895028;29;20055;-69
2023/08/26 12:42:28;;;;;;;2.22;0.55;;;23.60;99.90;;;;;;4893637;29;20416;-69
2023/08/26 12:44:54;;;;;;;2.92;0.50;;;23.20;99.90;;;;;;4896890;29;20028;-70
2023/08/26 12:47:20;;;;;;;2.72;0.63;;;23.20;99.90;;;;;;4902210;29;20541;-70